createdAt,value
2022-08-17T00:02:01.463Z,23.83
2022-08-17T00:04:57.354Z,23.25
2022-08-17T00:07:45.773Z,22.50
2022-08-17T00:10:34.841Z,22.28
2022-08-17T00:13:27.662Z,21.94
2022-08-17T00:16:23.223Z,21.86
2022-08-17T00:19:33.019Z,21.79
2022-08-17T00:22:34.758Z,21.72
2022-08-17T00:25:23.873Z,21.42
2022-08-17T00:28:14.264Z,21.45
2022-08-17T00:31:02.764Z,21.57
2022-08-17T00:33:52.648Z,21.39
2022-08-17T00:36:41.000Z,21.27
2022-08-17T00:39:29.502Z,21.36
2022-08-17T00:42:19.611Z,21.55
2022-08-17T00:45:10.149Z,21.48
2022-08-17T00:47:58.526Z,21.42
2022-08-17T00:50:57.601Z,21.62
2022-08-17T00:53:52.506Z,21.66
2022-08-17T00:56:44.115Z,21.53
2022-08-17T00:59:37.579Z,21.88
2022-08-17T01:02:26.476Z,21.89
2022-08-17T01:05:19.525Z,21.91
2022-08-17T01:08:13.546Z,22.20
2022-08-17T01:11:02.823Z,22.34
2022-08-17T01:13:51.466Z,22.64
2022-08-17T01:16:40.548Z,22.65
2022-08-17T01:19:31.803Z,22.78
2022-08-17T01:22:25.745Z,22.22
2022-08-17T01:25:14.788Z,22.02
2022-08-17T01:28:03.900Z,21.86
2022-08-17T01:30:59.004Z,21.77
2022-08-17T01:33:47.907Z,21.81
2022-08-17T01:36:36.569Z,21.86
2022-08-17T01:39:31.349Z,22.03
2022-08-17T01:42:23.758Z,22.05
2022-08-17T01:45:15.394Z,22.18
2022-08-17T01:48:03.984Z,22.35
2022-08-17T01:50:53.359Z,21.94
2022-08-17T01:53:48.512Z,21.49
2022-08-17T01:56:41.610Z,21.66
2022-08-17T01:59:30.838Z,21.56
2022-08-17T02:02:31.044Z,21.21
2022-08-17T02:05:19.977Z,21.56
2022-08-17T02:08:08.959Z,22.11
2022-08-17T02:11:12.041Z,22.35
2022-08-17T02:14:03.176Z,22.41
2022-08-17T02:16:53.061Z,22.40
2022-08-17T02:19:41.990Z,22.64
2022-08-17T02:22:31.156Z,22.75
2022-08-17T02:25:21.748Z,22.64
2022-08-17T02:28:12.978Z,22.66
2022-08-17T02:31:07.792Z,22.73
2022-08-17T02:34:00.567Z,22.55
2022-08-17T02:36:54.200Z,22.49
2022-08-17T02:39:42.565Z,21.95
2022-08-17T02:42:34.676Z,22.17
2022-08-17T02:45:25.579Z,21.47
2022-08-17T02:48:15.369Z,20.86
2022-08-17T02:51:19.160Z,20.36
2022-08-17T02:54:41.233Z,20.48
2022-08-17T02:57:16.131Z,20.12
2022-08-17T03:00:06.055Z,20.37
2022-08-17T03:02:54.848Z,20.90
2022-08-17T03:05:44.719Z,21.05
2022-08-17T03:08:33.195Z,21.02
2022-08-17T03:11:22.127Z,21.46
2022-08-17T03:14:10.581Z,21.77
2022-08-17T03:16:59.262Z,21.51
2022-08-17T03:19:47.788Z,21.42
2022-08-17T03:22:40.042Z,20.96
2022-08-17T03:25:30.861Z,20.84
2022-08-17T03:28:19.230Z,20.63
2022-08-17T03:31:08.499Z,20.49
2022-08-17T03:33:57.705Z,20.79
2022-08-17T03:36:47.441Z,20.58
2022-08-17T03:39:37.264Z,21.07
2022-08-17T03:42:31.377Z,21.25
2022-08-17T03:45:44.385Z,21.51
2022-08-17T03:48:50.356Z,21.39
2022-08-17T03:51:55.450Z,21.00
2022-08-17T03:55:03.682Z,20.32
2022-08-17T03:57:52.045Z,20.46
2022-08-17T04:00:45.793Z,20.25
2022-08-17T04:03:34.275Z,20.70
2022-08-17T04:06:23.011Z,20.69
2022-08-17T04:09:12.987Z,20.01
2022-08-17T04:12:04.803Z,19.86
2022-08-17T04:14:55.009Z,20.15
2022-08-17T04:17:44.657Z,19.97
2022-08-17T04:20:33.273Z,19.71
2022-08-17T04:23:21.768Z,19.65
2022-08-17T04:26:10.896Z,19.47
2022-08-17T04:29:21.472Z,19.58
2022-08-17T04:32:10.293Z,19.55
2022-08-17T04:34:59.148Z,19.51
2022-08-17T04:37:47.646Z,19.56
2022-08-17T04:40:54.104Z,19.47
2022-08-17T04:43:43.885Z,19.71
2022-08-17T04:46:35.779Z,19.56
2022-08-17T04:49:24.197Z,19.76
2022-08-17T04:52:29.655Z,19.83
2022-08-17T04:55:21.330Z,20.15
2022-08-17T04:58:10.239Z,20.57
2022-08-17T05:00:58.629Z,20.37
2022-08-17T05:03:48.738Z,20.48
2022-08-17T05:06:37.336Z,20.71
2022-08-17T05:09:25.751Z,20.99
2022-08-17T05:12:14.162Z,21.36
2022-08-17T05:15:02.748Z,21.69
2022-08-17T05:17:51.148Z,22.08
2022-08-17T05:20:42.590Z,21.93
2022-08-17T05:23:34.983Z,21.38
2022-08-17T05:26:31.698Z,21.73
2022-08-17T05:29:35.159Z,22.00
2022-08-17T05:32:39.144Z,22.12
2022-08-17T05:35:31.516Z,22.01
2022-08-17T05:38:23.232Z,22.35
2022-08-17T05:41:11.965Z,22.18
2022-08-17T05:44:00.318Z,22.05
2022-08-17T05:46:54.426Z,22.04
2022-08-17T05:49:43.023Z,21.88
2022-08-17T05:52:37.513Z,22.04
2022-08-17T05:55:32.855Z,22.09
2022-08-17T05:58:26.501Z,22.32
2022-08-17T06:01:31.830Z,22.87
2022-08-17T06:04:32.021Z,22.28
2022-08-17T06:07:26.885Z,22.88
2022-08-17T06:10:22.195Z,23.44
2022-08-17T06:13:19.911Z,23.64
2022-08-17T06:16:28.210Z,23.36
2022-08-17T06:19:28.811Z,23.15
2022-08-17T06:22:21.665Z,23.14
2022-08-17T06:25:16.695Z,23.32
2022-08-17T06:28:09.735Z,23.47
2022-08-17T06:31:09.352Z,23.20
2022-08-17T06:33:59.780Z,23.84
2022-08-17T06:36:53.162Z,23.86
2022-08-17T06:39:54.860Z,23.45
2022-08-17T06:43:06.429Z,24.04
2022-08-17T06:46:04.132Z,23.56
2022-08-17T06:49:07.591Z,23.87
2022-08-17T06:52:02.059Z,23.94
2022-08-17T06:54:58.085Z,23.60
2022-08-17T06:57:50.684Z,24.08
2022-08-17T07:00:43.677Z,24.43
2022-08-17T07:03:38.016Z,24.52
2022-08-17T07:06:34.074Z,24.73
2022-08-17T07:09:30.600Z,25.37
2022-08-17T07:12:23.243Z,25.67
2022-08-17T07:15:14.819Z,25.41
2022-08-17T07:18:03.950Z,25.67
2022-08-17T07:20:58.067Z,26.15
2022-08-17T07:24:02.088Z,26.17
2022-08-17T07:27:05.064Z,26.36
2022-08-17T07:29:58.233Z,26.27
2022-08-17T07:32:50.877Z,26.48
2022-08-17T07:35:43.899Z,26.56
2022-08-17T07:38:34.595Z,26.85
2022-08-17T07:41:25.125Z,26.74
2022-08-17T07:44:17.926Z,26.82
2022-08-17T07:47:45.092Z,26.87
2022-08-17T07:50:34.820Z,26.84
2022-08-17T07:53:25.663Z,26.87
2022-08-17T07:56:39.153Z,27.50
2022-08-17T07:59:33.775Z,27.55
2022-08-17T08:02:31.907Z,27.70
2022-08-17T08:05:50.266Z,27.42
2022-08-17T08:08:38.707Z,28.06
2022-08-17T08:11:32.486Z,27.22
2022-08-17T08:14:29.449Z,27.73
2022-08-17T08:17:25.253Z,27.73
2022-08-17T08:20:51.407Z,28.05
2022-08-17T08:23:36.153Z,28.50
2022-08-17T08:26:34.310Z,28.92
2022-08-17T08:29:31.548Z,28.89
2022-08-17T08:32:28.133Z,28.77
2022-08-17T08:35:26.917Z,28.91
2022-08-17T08:38:25.600Z,28.69
2022-08-17T08:41:30.846Z,28.96
2022-08-17T08:45:00.585Z,29.56
2022-08-17T08:48:12.839Z,29.45
2022-08-17T08:51:27.953Z,29.43
2022-08-17T08:54:28.641Z,29.19
2022-08-17T08:57:26.923Z,30.00
2022-08-17T09:00:22.674Z,30.60
2022-08-17T09:03:50.908Z,29.63
2022-08-17T09:06:52.274Z,29.62
2022-08-17T09:09:53.369Z,30.08
2022-08-17T09:12:56.016Z,30.73
2022-08-17T09:15:49.458Z,30.57
2022-08-17T09:18:59.956Z,30.63
2022-08-17T09:21:54.627Z,30.12
2022-08-17T09:24:48.275Z,29.34
2022-08-17T09:27:47.889Z,30.03
2022-08-17T09:30:42.281Z,30.15
2022-08-17T09:33:38.148Z,30.48
2022-08-17T09:36:31.263Z,30.29
2022-08-17T09:39:29.766Z,30.91
2022-08-17T09:42:25.079Z,30.73
2022-08-17T09:45:26.423Z,29.84
2022-08-17T09:48:20.091Z,30.27
2022-08-17T09:51:19.084Z,30.49
2022-08-17T09:54:38.232Z,30.65
2022-08-17T09:57:50.322Z,31.60
2022-08-17T10:00:50.459Z,32.09
2022-08-17T10:04:05.069Z,31.18
2022-08-17T10:07:01.959Z,30.27
2022-08-17T10:10:01.089Z,29.51
2022-08-17T10:12:57.963Z,29.92
2022-08-17T10:15:55.054Z,30.63
2022-08-17T10:18:54.406Z,30.80
2022-08-17T10:22:14.927Z,31.05
2022-08-17T10:25:49.092Z,30.75
2022-08-17T10:28:54.785Z,30.16
2022-08-17T10:31:47.723Z,29.96
2022-08-17T10:35:17.143Z,30.19
2022-08-17T10:38:25.599Z,30.66
2022-08-17T10:41:36.882Z,30.34
2022-08-17T10:44:41.551Z,31.05
2022-08-17T10:48:04.735Z,30.76
2022-08-17T10:51:04.141Z,31.45
2022-08-17T10:54:01.778Z,30.85
2022-08-17T10:56:54.311Z,31.35
2022-08-17T10:59:55.122Z,30.00
2022-08-17T11:02:51.035Z,30.39
2022-08-17T11:05:54.162Z,30.31
2022-08-17T11:09:11.350Z,30.29
2022-08-17T11:12:28.992Z,30.21
2022-08-17T11:15:31.123Z,30.15
2022-08-17T11:18:40.833Z,29.46
2022-08-17T11:21:59.158Z,29.65
2022-08-17T11:24:52.052Z,30.10
2022-08-17T11:27:45.963Z,30.60
2022-08-17T11:30:52.854Z,30.95
2022-08-17T11:34:00.588Z,30.95
2022-08-17T11:37:29.195Z,30.97
2022-08-17T11:40:41.883Z,30.37
2022-08-17T11:43:57.531Z,31.20
2022-08-17T11:47:25.771Z,31.04
2022-08-17T11:50:51.436Z,31.23
2022-08-17T11:54:32.831Z,31.79
2022-08-17T11:58:05.509Z,31.98
2022-08-17T12:01:02.583Z,31.34
2022-08-17T12:03:59.414Z,30.85
2022-08-17T12:06:54.902Z,31.55
2022-08-17T12:09:50.988Z,32.21
2022-08-17T12:12:44.729Z,31.01
2022-08-17T12:15:39.873Z,31.55
2022-08-17T12:18:36.020Z,32.32
2022-08-17T12:21:44.610Z,32.33
2022-08-17T12:24:48.897Z,33.04
2022-08-17T12:28:05.469Z,33.05
2022-08-17T12:31:04.501Z,34.04
2022-08-17T12:33:56.808Z,35.22
2022-08-17T12:36:46.123Z,33.98
2022-08-17T12:39:35.395Z,32.84
2022-08-17T12:42:30.591Z,34.13
2022-08-17T12:45:26.072Z,33.26
2022-08-17T12:48:23.919Z,34.82
2022-08-17T12:51:13.960Z,34.19
2022-08-17T12:54:03.560Z,34.28
2022-08-17T12:56:52.280Z,34.17
2022-08-17T12:59:44.095Z,34.48
2022-08-17T13:02:43.618Z,34.68
2022-08-17T13:05:35.871Z,34.65
2022-08-17T13:08:30.986Z,33.86
2022-08-17T13:11:21.823Z,34.08
2022-08-17T13:14:11.771Z,32.78
2022-08-17T13:17:08.563Z,33.71
2022-08-17T13:20:00.223Z,34.50
2022-08-17T13:22:54.778Z,34.23
2022-08-17T13:25:54.868Z,34.14
2022-08-17T13:28:49.780Z,33.01
2022-08-17T13:31:52.266Z,33.13
2022-08-17T13:35:14.123Z,33.91
2022-08-17T13:38:02.370Z,34.87
2022-08-17T13:40:54.191Z,35.34
2022-08-17T13:43:46.109Z,36.26
2022-08-17T13:46:34.547Z,36.24
2022-08-17T13:49:23.420Z,36.86
2022-08-17T13:52:33.027Z,37.10
2022-08-17T13:55:23.964Z,37.21
2022-08-17T13:58:21.522Z,36.07
2022-08-17T14:01:28.791Z,36.41
2022-08-17T14:04:20.325Z,34.32
2022-08-17T14:07:28.294Z,33.43
2022-08-17T14:10:19.334Z,33.35
2022-08-17T14:13:08.714Z,33.12
2022-08-17T14:15:58.462Z,32.86
2022-08-17T14:18:56.230Z,32.28
2022-08-17T14:21:47.750Z,32.42
2022-08-17T14:24:44.709Z,33.00
2022-08-17T14:27:41.848Z,33.37
2022-08-17T14:30:42.687Z,33.60
2022-08-17T14:33:32.590Z,33.86
2022-08-17T14:36:21.032Z,35.48
2022-08-17T14:39:09.759Z,35.22
2022-08-17T14:42:02.328Z,33.69
2022-08-17T14:44:51.109Z,33.83
2022-08-17T14:47:41.718Z,34.20
2022-08-17T14:50:32.129Z,34.02
2022-08-17T14:53:24.123Z,33.45
2022-08-17T14:56:13.422Z,33.60
2022-08-17T14:59:01.877Z,33.11
2022-08-17T15:01:50.469Z,33.81
2022-08-17T15:04:44.875Z,33.79
2022-08-17T15:07:35.510Z,34.37
2022-08-17T15:10:25.864Z,34.90
2022-08-17T15:13:19.929Z,33.46
2022-08-17T15:16:09.935Z,34.82
2022-08-17T15:18:59.048Z,35.66
2022-08-17T15:21:47.910Z,35.80
2022-08-17T15:24:37.796Z,33.22
2022-08-17T15:27:32.417Z,34.01
2022-08-17T15:30:21.799Z,35.62
2022-08-17T15:33:14.568Z,34.90
2022-08-17T15:36:07.625Z,33.56
2022-08-17T15:38:56.111Z,34.89
2022-08-17T15:41:47.135Z,35.57
2022-08-17T15:44:46.529Z,35.68
2022-08-17T15:47:34.899Z,35.88
2022-08-17T15:50:23.602Z,36.23
2022-08-17T15:53:12.594Z,36.00
2022-08-17T15:56:03.446Z,36.27
2022-08-17T15:58:54.940Z,36.15
2022-08-17T16:03:13.027Z,36.18
2022-08-17T16:04:52.107Z,35.87
2022-08-17T16:07:41.773Z,35.80
2022-08-17T16:10:35.033Z,35.14
2022-08-17T16:13:24.656Z,34.95
2022-08-17T16:16:15.492Z,35.06
2022-08-17T16:19:04.245Z,35.09
2022-08-17T16:21:53.243Z,35.15
2022-08-17T16:24:56.835Z,35.14
2022-08-17T16:27:47.069Z,34.82
2022-08-17T16:30:35.718Z,34.49
2022-08-17T16:33:25.502Z,34.17
2022-08-17T16:36:13.966Z,34.22
2022-08-17T16:39:02.546Z,34.50
2022-08-17T16:41:51.067Z,34.63
2022-08-17T16:44:39.396Z,34.64
2022-08-17T16:47:28.132Z,34.72
2022-08-17T16:50:20.535Z,34.62
2022-08-17T16:53:17.620Z,34.42
2022-08-17T16:56:07.406Z,34.84
2022-08-17T16:58:56.159Z,34.77
2022-08-17T17:01:45.140Z,34.84
2022-08-17T17:04:38.235Z,34.73
2022-08-17T17:08:09.111Z,34.66
2022-08-17T17:11:08.933Z,34.57
2022-08-17T17:14:02.091Z,34.36
2022-08-17T17:16:59.166Z,34.04
2022-08-17T17:20:02.064Z,34.09
2022-08-17T17:23:09.715Z,34.10
2022-08-17T17:26:36.091Z,34.01
2022-08-17T17:29:47.378Z,33.67
2022-08-17T17:32:41.746Z,33.44
2022-08-17T17:35:35.420Z,33.61
2022-08-17T17:38:29.250Z,33.32
2022-08-17T17:41:26.407Z,33.09
2022-08-17T17:44:19.707Z,33.07
2022-08-17T17:47:09.994Z,32.83
2022-08-17T17:50:01.942Z,32.61
2022-08-17T17:52:59.923Z,32.30
2022-08-17T17:56:00.694Z,32.14
2022-08-17T17:58:56.636Z,31.98
2022-08-17T18:01:55.160Z,31.76
2022-08-17T18:04:53.642Z,31.69
2022-08-17T18:07:46.630Z,31.60
2022-08-17T18:10:49.066Z,31.30
2022-08-17T18:13:53.488Z,31.22
2022-08-17T18:16:43.686Z,31.20
2022-08-17T18:19:33.597Z,31.13
2022-08-17T18:22:23.536Z,31.04
2022-08-17T18:25:40.560Z,30.89
2022-08-17T18:28:32.494Z,30.78
2022-08-17T18:31:22.468Z,30.74
2022-08-17T18:34:45.978Z,30.68
2022-08-17T18:37:41.032Z,30.59
2022-08-17T18:40:36.273Z,30.50
2022-08-17T18:43:27.446Z,30.37
2022-08-17T18:46:30.084Z,30.23
2022-08-17T18:49:27.965Z,30.09
2022-08-17T18:52:22.753Z,29.96
2022-08-17T18:55:15.639Z,29.89
2022-08-17T18:58:17.683Z,29.68
2022-08-17T19:01:19.650Z,29.55
2022-08-17T19:04:14.425Z,29.60
2022-08-17T19:07:25.829Z,29.41
2022-08-17T19:10:25.753Z,29.43
2022-08-17T19:13:23.880Z,29.36
2022-08-17T19:16:17.859Z,29.21
2022-08-17T19:19:14.161Z,29.09
2022-08-17T19:22:13.136Z,29.13
2022-08-17T19:25:16.119Z,29.06
2022-08-17T19:28:21.835Z,29.00
2022-08-17T19:31:18.071Z,29.01
2022-08-17T19:34:06.639Z,29.00
2022-08-17T19:36:59.649Z,28.95
2022-08-17T19:39:56.338Z,28.91
2022-08-17T19:42:54.193Z,28.79
2022-08-17T19:45:59.484Z,28.83
2022-08-17T19:48:57.297Z,28.72
2022-08-17T19:51:52.185Z,28.71
2022-08-17T19:54:48.013Z,28.63
2022-08-17T19:57:46.741Z,28.48
2022-08-17T20:00:47.641Z,28.30
2022-08-17T20:03:52.803Z,28.16
2022-08-17T20:06:45.148Z,28.04
2022-08-17T20:09:38.054Z,28.03
2022-08-17T20:12:31.934Z,28.05
2022-08-17T20:15:28.458Z,28.04
2022-08-17T20:18:25.327Z,28.04
2022-08-17T20:21:20.171Z,27.74
2022-08-17T20:24:21.236Z,27.80
2022-08-17T20:27:16.456Z,27.74
2022-08-17T20:30:11.519Z,27.77
2022-08-17T20:33:04.223Z,27.74
2022-08-17T20:36:19.027Z,27.60
2022-08-17T20:39:33.096Z,27.63
2022-08-17T20:42:34.801Z,27.56
2022-08-17T20:45:50.158Z,27.45
2022-08-17T20:48:43.120Z,27.31
2022-08-17T20:51:39.635Z,27.15
2022-08-17T20:54:48.010Z,27.03
2022-08-17T20:57:49.864Z,26.96
2022-08-17T21:00:47.992Z,27.02
2022-08-17T21:03:51.896Z,27.12
2022-08-17T21:07:17.620Z,27.07
2022-08-17T21:10:14.606Z,27.00
2022-08-17T21:13:23.958Z,26.89
2022-08-17T21:16:41.652Z,26.78
2022-08-17T21:20:00.582Z,26.86
2022-08-17T21:23:03.036Z,26.78
2022-08-17T21:26:15.762Z,26.70
2022-08-17T21:29:31.310Z,26.48
2022-08-17T21:32:30.628Z,26.53
2022-08-17T21:35:47.468Z,26.49
2022-08-17T21:38:39.624Z,26.37
2022-08-17T21:41:32.925Z,26.27
2022-08-17T21:44:31.143Z,26.26
2022-08-17T21:47:24.476Z,26.18
2022-08-17T21:50:20.702Z,26.11
2022-08-17T21:53:14.848Z,26.14
2022-08-17T21:56:04.909Z,26.05
2022-08-17T21:59:01.871Z,25.89
2022-08-17T22:01:56.322Z,25.89
2022-08-17T22:04:58.653Z,25.70
2022-08-17T22:07:51.652Z,25.70
2022-08-17T22:10:43.670Z,25.56
2022-08-17T22:13:33.213Z,25.58
2022-08-17T22:16:28.367Z,25.54
2022-08-17T22:19:22.182Z,25.54
2022-08-17T22:22:25.013Z,25.44
2022-08-17T22:25:25.216Z,25.47
2022-08-17T22:28:15.023Z,25.52
2022-08-17T22:31:06.645Z,25.54
2022-08-17T22:34:11.536Z,25.45
2022-08-17T22:37:27.719Z,25.48
2022-08-17T22:40:29.545Z,25.43
2022-08-17T22:43:26.431Z,25.41
2022-08-17T22:46:16.989Z,25.40
2022-08-17T22:49:08.581Z,25.42
2022-08-17T22:52:08.834Z,25.45
2022-08-17T22:55:27.345Z,25.43
2022-08-17T22:58:37.571Z,25.38
2022-08-17T23:01:30.235Z,25.39
2022-08-17T23:04:34.549Z,25.27
2022-08-17T23:07:24.016Z,25.18
2022-08-17T23:10:13.176Z,25.05
2022-08-17T23:13:02.146Z,25.08
2022-08-17T23:15:52.186Z,25.07
2022-08-17T23:18:40.669Z,24.93
2022-08-17T23:21:31.237Z,24.96
2022-08-17T23:24:28.482Z,24.96
2022-08-17T23:27:17.181Z,25.00
2022-08-17T23:30:06.218Z,24.88
2022-08-17T23:32:56.040Z,24.90
2022-08-17T23:35:44.802Z,24.90
2022-08-17T23:38:34.718Z,24.77
2022-08-17T23:41:26.570Z,24.77
2022-08-17T23:44:15.876Z,24.66
2022-08-17T23:47:05.882Z,24.57
2022-08-17T23:49:54.973Z,24.57
2022-08-17T23:52:46.712Z,24.48
2022-08-17T23:55:36.624Z,24.47
2022-08-17T23:58:25.181Z,24.44
